sensor_id;sensor_type;location;lat;lon;timestamp;temperature;humidity
2783;DHT22;1399;47.072;15.452;2023-06-04T00:00:49;17.90;59.00
2783;DHT22;1399;47.072;15.452;2023-06-04T00:03:15;17.90;59.10
2783;DHT22;1399;47.072;15.452;2023-06-04T00:05:41;17.80;59.00
2783;DHT22;1399;47.072;15.452;2023-06-04T00:08:07;17.90;59.20
2783;DHT22;1399;47.072;15.452;2023-06-04T00:10:32;17.80;59.10
2783;DHT22;1399;47.072;15.452;2023-06-04T00:13:00;17.80;59.10
2783;DHT22;1399;47.072;15.452;2023-06-04T00:15:26;17.80;59.10
2783;DHT22;1399;47.072;15.452;2023-06-04T00:17:52;17.80;59.20
2783;DHT22;1399;47.072;15.452;2023-06-04T00:20:18;17.80;59.30
2783;DHT22;1399;47.072;15.452;2023-06-04T00:22:44;17.80;59.40
2783;DHT22;1399;47.072;15.452;2023-06-04T00:25:10;17.80;59.40
2783;DHT22;1399;47.072;15.452;2023-06-04T00:27:36;17.80;59.40
2783;DHT22;1399;47.072;15.452;2023-06-04T00:30:03;17.70;59.30
2783;DHT22;1399;47.072;15.452;2023-06-04T00:32:29;17.80;59.40
2783;DHT22;1399;47.072;15.452;2023-06-04T00:34:56;17.70;59.30
2783;DHT22;1399;47.072;15.452;2023-06-04T00:37:27;17.70;59.30
2783;DHT22;1399;47.072;15.452;2023-06-04T00:39:53;17.70;59.40
2783;DHT22;1399;47.072;15.452;2023-06-04T00:42:19;17.70;59.40
2783;DHT22;1399;47.072;15.452;2023-06-04T00:44:45;17.70;59.40
2783;DHT22;1399;47.072;15.452;2023-06-04T00:47:11;17.70;59.50
2783;DHT22;1399;47.072;15.452;2023-06-04T00:49:38;17.70;59.60
2783;DHT22;1399;47.072;15.452;2023-06-04T00:52:04;17.70;59.60
2783;DHT22;1399;47.072;15.452;2023-06-04T00:54:31;17.70;59.70
2783;DHT22;1399;47.072;15.452;2023-06-04T00:56:59;17.70;59.70
2783;DHT22;1399;47.072;15.452;2023-06-04T00:59:25;17.70;59.70
2783;DHT22;1399;47.072;15.452;2023-06-04T01:04:31;17.70;59.80
2783;DHT22;1399;47.072;15.452;2023-06-04T01:07:00;17.70;59.80
2783;DHT22;1399;47.072;15.452;2023-06-04T01:09:29;17.60;59.80
2783;DHT22;1399;47.072;15.452;2023-06-04T01:11:56;17.60;59.80
2783;DHT22;1399;47.072;15.452;2023-06-04T01:14:24;17.60;59.90
2783;DHT22;1399;47.072;15.452;2023-06-04T01:20:29;17.60;59.90
2783;DHT22;1399;47.072;15.452;2023-06-04T01:25:50;17.60;60.00
2783;DHT22;1399;47.072;15.452;2023-06-04T01:28:17;17.60;60.00
2783;DHT22;1399;47.072;15.452;2023-06-04T01:30:46;17.60;60.00
2783;DHT22;1399;47.072;15.452;2023-06-04T01:33:19;17.60;61.00
2783;DHT22;1399;47.072;15.452;2023-06-04T01:35:46;17.60;60.10
2783;DHT22;1399;47.072;15.452;2023-06-04T01:38:12;17.60;60.10
2783;DHT22;1399;47.072;15.452;2023-06-04T01:40:37;17.60;60.30
2783;DHT22;1399;47.072;15.452;2023-06-04T01:43:03;17.60;60.20
2783;DHT22;1399;47.072;15.452;2023-06-04T01:45:29;17.60;60.30
2783;DHT22;1399;47.072;15.452;2023-06-04T01:47:56;17.60;60.30
2783;DHT22;1399;47.072;15.452;2023-06-04T01:50:22;17.60;60.40
2783;DHT22;1399;47.072;15.452;2023-06-04T01:52:48;17.60;60.30
2783;DHT22;1399;47.072;15.452;2023-06-04T01:55:15;17.50;60.20
2783;DHT22;1399;47.072;15.452;2023-06-04T01:57:42;17.50;60.20
2783;DHT22;1399;47.072;15.452;2023-06-04T02:00:10;17.50;60.10
2783;DHT22;1399;47.072;15.452;2023-06-04T02:02:38;17.50;60.10
2783;DHT22;1399;47.072;15.452;2023-06-04T02:05:07;17.50;60.10
2783;DHT22;1399;47.072;15.452;2023-06-04T02:07:38;17.50;60.00
2783;DHT22;1399;47.072;15.452;2023-06-04T02:10:08;17.50;59.90
2783;DHT22;1399;47.072;15.452;2023-06-04T02:12:37;17.50;59.90
2783;DHT22;1399;47.072;15.452;2023-06-04T02:15:04;17.50;59.90
2783;DHT22;1399;47.072;15.452;2023-06-04T02:17:30;17.50;59.80
2783;DHT22;1399;47.072;15.452;2023-06-04T02:19:58;17.50;59.80
2783;DHT22;1399;47.072;15.452;2023-06-04T02:22:25;17.50;59.80
2783;DHT22;1399;47.072;15.452;2023-06-04T02:24:51;17.50;59.80
2783;DHT22;1399;47.072;15.452;2023-06-04T02:27:17;17.50;59.80
2783;DHT22;1399;47.072;15.452;2023-06-04T02:29:43;17.50;59.80
2783;DHT22;1399;47.072;15.452;2023-06-04T02:32:09;17.50;59.80
2783;DHT22;1399;47.072;15.452;2023-06-04T02:34:35;17.50;59.80
2783;DHT22;1399;47.072;15.452;2023-06-04T02:37:02;17.50;59.80
2783;DHT22;1399;47.072;15.452;2023-06-04T02:39:28;17.50;59.80
2783;DHT22;1399;47.072;15.452;2023-06-04T02:41:54;17.50;59.80
2783;DHT22;1399;47.072;15.452;2023-06-04T02:44:20;17.50;59.90
2783;DHT22;1399;47.072;15.452;2023-06-04T02:46:45;17.50;59.90
2783;DHT22;1399;47.072;15.452;2023-06-04T02:49:12;17.50;59.90
2783;DHT22;1399;47.072;15.452;2023-06-04T02:51:42;17.50;59.90
2783;DHT22;1399;47.072;15.452;2023-06-04T02:54:09;17.50;59.90
2783;DHT22;1399;47.072;15.452;2023-06-04T02:56:36;17.50;59.90
2783;DHT22;1399;47.072;15.452;2023-06-04T02:59:03;17.50;60.70
2783;DHT22;1399;47.072;15.452;2023-06-04T03:01:29;17.50;60.00
2783;DHT22;1399;47.072;15.452;2023-06-04T03:03:55;17.50;59.90
2783;DHT22;1399;47.072;15.452;2023-06-04T03:06:22;17.50;59.90
2783;DHT22;1399;47.072;15.452;2023-06-04T03:08:49;17.50;59.90
2783;DHT22;1399;47.072;15.452;2023-06-04T03:11:19;17.50;59.90
2783;DHT22;1399;47.072;15.452;2023-06-04T03:13:49;17.40;59.90
2783;DHT22;1399;47.072;15.452;2023-06-04T03:16:17;17.50;59.90
2783;DHT22;1399;47.072;15.452;2023-06-04T03:18:43;17.50;59.90
2783;DHT22;1399;47.072;15.452;2023-06-04T03:21:11;17.40;59.90
2783;DHT22;1399;47.072;15.452;2023-06-04T03:23:37;17.40;59.90
2783;DHT22;1399;47.072;15.452;2023-06-04T03:26:04;17.40;59.90
2783;DHT22;1399;47.072;15.452;2023-06-04T03:28:31;17.40;59.90
2783;DHT22;1399;47.072;15.452;2023-06-04T03:30:58;17.40;59.90
2783;DHT22;1399;47.072;15.452;2023-06-04T03:33:24;17.40;59.90
2783;DHT22;1399;47.072;15.452;2023-06-04T03:35:51;17.40;59.90
2783;DHT22;1399;47.072;15.452;2023-06-04T03:38:18;17.40;59.90
2783;DHT22;1399;47.072;15.452;2023-06-04T03:40:45;17.40;59.90
2783;DHT22;1399;47.072;15.452;2023-06-04T03:43:11;17.40;60.60
2783;DHT22;1399;47.072;15.452;2023-06-04T03:45:37;17.40;59.80
2783;DHT22;1399;47.072;15.452;2023-06-04T03:48:03;17.40;59.80
2783;DHT22;1399;47.072;15.452;2023-06-04T03:50:29;17.50;59.80
2783;DHT22;1399;47.072;15.452;2023-06-04T03:52:56;17.50;59.80
2783;DHT22;1399;47.072;15.452;2023-06-04T03:55:22;17.50;59.80
2783;DHT22;1399;47.072;15.452;2023-06-04T03:57:48;17.50;59.80
2783;DHT22;1399;47.072;15.452;2023-06-04T04:00:14;17.50;59.70
2783;DHT22;1399;47.072;15.452;2023-06-04T04:02:40;17.50;59.60
2783;DHT22;1399;47.072;15.452;2023-06-04T04:05:07;17.50;59.60
2783;DHT22;1399;47.072;15.452;2023-06-04T04:07:32;17.50;59.50
2783;DHT22;1399;47.072;15.452;2023-06-04T04:09:58;17.60;59.60
2783;DHT22;1399;47.072;15.452;2023-06-04T04:12:24;17.60;59.50
2783;DHT22;1399;47.072;15.452;2023-06-04T04:14:50;17.60;59.50
2783;DHT22;1399;47.072;15.452;2023-06-04T04:17:16;17.60;59.40
2783;DHT22;1399;47.072;15.452;2023-06-04T04:19:42;17.60;59.40
2783;DHT22;1399;47.072;15.452;2023-06-04T04:22:10;17.70;59.40
2783;DHT22;1399;47.072;15.452;2023-06-04T04:24:36;17.70;59.30
2783;DHT22;1399;47.072;15.452;2023-06-04T04:27:04;17.70;59.40
2783;DHT22;1399;47.072;15.452;2023-06-04T04:29:31;17.70;59.40
2783;DHT22;1399;47.072;15.452;2023-06-04T04:32:01;17.70;59.40
2783;DHT22;1399;47.072;15.452;2023-06-04T04:34:28;17.70;59.40
2783;DHT22;1399;47.072;15.452;2023-06-04T04:36:54;17.70;59.40
2783;DHT22;1399;47.072;15.452;2023-06-04T04:39:25;17.70;59.30
2783;DHT22;1399;47.072;15.452;2023-06-04T04:41:51;17.70;59.30
2783;DHT22;1399;47.072;15.452;2023-06-04T04:44:17;17.70;59.30
2783;DHT22;1399;47.072;15.452;2023-06-04T04:46:43;17.70;59.30
2783;DHT22;1399;47.072;15.452;2023-06-04T04:49:09;17.70;59.30
2783;DHT22;1399;47.072;15.452;2023-06-04T04:51:35;17.80;59.30
2783;DHT22;1399;47.072;15.452;2023-06-04T04:54:02;17.80;59.30
2783;DHT22;1399;47.072;15.452;2023-06-04T04:56:28;17.80;59.20
2783;DHT22;1399;47.072;15.452;2023-06-04T04:58:56;17.80;59.20
2783;DHT22;1399;47.072;15.452;2023-06-04T05:01:22;17.90;59.20
2783;DHT22;1399;47.072;15.452;2023-06-04T05:03:49;17.80;59.00
2783;DHT22;1399;47.072;15.452;2023-06-04T05:06:15;17.80;59.00
2783;DHT22;1399;47.072;15.452;2023-06-04T05:08:41;17.90;59.10
2783;DHT22;1399;47.072;15.452;2023-06-04T05:11:07;17.90;59.00
2783;DHT22;1399;47.072;15.452;2023-06-04T05:13:33;18.00;59.00
2783;DHT22;1399;47.072;15.452;2023-06-04T05:15:59;18.00;59.00
2783;DHT22;1399;47.072;15.452;2023-06-04T05:18:36;18.00;58.80
2783;DHT22;1399;47.072;15.452;2023-06-04T05:21:07;18.10;58.80
2783;DHT22;1399;47.072;15.452;2023-06-04T05:23:33;18.10;58.70
2783;DHT22;1399;47.072;15.452;2023-06-04T05:26:03;18.20;58.70
2783;DHT22;1399;47.072;15.452;2023-06-04T05:28:31;18.20;58.60
2783;DHT22;1399;47.072;15.452;2023-06-04T05:31:00;18.30;58.60
2783;DHT22;1399;47.072;15.452;2023-06-04T05:33:27;18.40;58.50
2783;DHT22;1399;47.072;15.452;2023-06-04T05:35:53;18.40;58.40
2783;DHT22;1399;47.072;15.452;2023-06-04T05:38:20;18.50;58.30
2783;DHT22;1399;47.072;15.452;2023-06-04T05:40:46;18.50;58.10
2783;DHT22;1399;47.072;15.452;2023-06-04T05:43:12;18.60;58.00
2783;DHT22;1399;47.072;15.452;2023-06-04T05:45:38;18.60;57.90
2783;DHT22;1399;47.072;15.452;2023-06-04T05:48:04;18.60;57.90
2783;DHT22;1399;47.072;15.452;2023-06-04T05:50:31;18.60;57.80
2783;DHT22;1399;47.072;15.452;2023-06-04T05:52:57;18.70;57.90
2783;DHT22;1399;47.072;15.452;2023-06-04T05:55:23;18.70;57.80
2783;DHT22;1399;47.072;15.452;2023-06-04T05:57:50;18.70;57.70
2783;DHT22;1399;47.072;15.452;2023-06-04T06:00:18;18.80;57.80
2783;DHT22;1399;47.072;15.452;2023-06-04T06:02:44;18.80;57.70
2783;DHT22;1399;47.072;15.452;2023-06-04T06:05:11;18.80;57.70
2783;DHT22;1399;47.072;15.452;2023-06-04T06:07:36;18.90;57.70
2783;DHT22;1399;47.072;15.452;2023-06-04T06:10:03;18.90;57.60
2783;DHT22;1399;47.072;15.452;2023-06-04T06:12:30;19.00;57.50
2783;DHT22;1399;47.072;15.452;2023-06-04T06:14:56;19.00;57.40
2783;DHT22;1399;47.072;15.452;2023-06-04T06:17:21;19.10;57.40
2783;DHT22;1399;47.072;15.452;2023-06-04T06:19:48;19.10;57.30
2783;DHT22;1399;47.072;15.452;2023-06-04T06:22:14;19.20;57.30
2783;DHT22;1399;47.072;15.452;2023-06-04T06:24:41;19.20;57.20
2783;DHT22;1399;47.072;15.452;2023-06-04T06:27:06;19.20;57.10
2783;DHT22;1399;47.072;15.452;2023-06-04T06:29:32;19.30;57.20
2783;DHT22;1399;47.072;15.452;2023-06-04T06:31:59;19.30;57.10
2783;DHT22;1399;47.072;15.452;2023-06-04T06:34:25;19.30;57.00
2783;DHT22;1399;47.072;15.452;2023-06-04T06:36:50;19.40;57.50
2783;DHT22;1399;47.072;15.452;2023-06-04T06:39:16;19.50;56.80
2783;DHT22;1399;47.072;15.452;2023-06-04T06:41:42;19.60;56.30
2783;DHT22;1399;47.072;15.452;2023-06-04T06:44:08;19.80;55.80
2783;DHT22;1399;47.072;15.452;2023-06-04T06:46:34;20.00;55.30
2783;DHT22;1399;47.072;15.452;2023-06-04T06:49:00;20.20;55.10
2783;DHT22;1399;47.072;15.452;2023-06-04T06:51:26;20.30;54.80
2783;DHT22;1399;47.072;15.452;2023-06-04T06:53:51;20.40;54.70
2783;DHT22;1399;47.072;15.452;2023-06-04T06:56:17;20.90;54.20
2783;DHT22;1399;47.072;15.452;2023-06-04T06:58:44;21.60;53.30
2783;DHT22;1399;47.072;15.452;2023-06-04T07:01:11;22.10;52.10
2783;DHT22;1399;47.072;15.452;2023-06-04T07:03:37;22.40;51.40
2783;DHT22;1399;47.072;15.452;2023-06-04T07:06:05;22.50;50.90
2783;DHT22;1399;47.072;15.452;2023-06-04T07:08:32;22.60;50.60
2783;DHT22;1399;47.072;15.452;2023-06-04T07:11:00;22.60;50.50
2783;DHT22;1399;47.072;15.452;2023-06-04T07:13:27;22.70;50.60
2783;DHT22;1399;47.072;15.452;2023-06-04T07:15:53;22.70;50.40
2783;DHT22;1399;47.072;15.452;2023-06-04T07:18:18;22.80;50.30
2783;DHT22;1399;47.072;15.452;2023-06-04T07:20:44;22.80;50.10
2783;DHT22;1399;47.072;15.452;2023-06-04T07:23:10;22.80;50.30
2783;DHT22;1399;47.072;15.452;2023-06-04T07:25:36;22.70;50.40
2783;DHT22;1399;47.072;15.452;2023-06-04T07:28:02;22.50;50.60
2783;DHT22;1399;47.072;15.452;2023-06-04T07:30:30;22.40;50.90
2783;DHT22;1399;47.072;15.452;2023-06-04T07:32:57;22.20;51.20
2783;DHT22;1399;47.072;15.452;2023-06-04T07:35:23;22.10;51.50
2783;DHT22;1399;47.072;15.452;2023-06-04T07:37:49;21.90;51.60
2783;DHT22;1399;47.072;15.452;2023-06-04T07:40:16;21.80;51.80
2783;DHT22;1399;47.072;15.452;2023-06-04T07:42:43;21.80;52.10
2783;DHT22;1399;47.072;15.452;2023-06-04T07:45:09;21.70;52.30
2783;DHT22;1399;47.072;15.452;2023-06-04T07:47:36;21.60;52.40
2783;DHT22;1399;47.072;15.452;2023-06-04T07:50:03;21.60;52.50
2783;DHT22;1399;47.072;15.452;2023-06-04T07:52:29;21.50;52.60
2783;DHT22;1399;47.072;15.452;2023-06-04T07:54:55;21.50;52.60
2783;DHT22;1399;47.072;15.452;2023-06-04T07:57:22;21.60;52.70
2783;DHT22;1399;47.072;15.452;2023-06-04T07:59:49;21.60;52.70
2783;DHT22;1399;47.072;15.452;2023-06-04T08:02:15;21.70;52.70
2783;DHT22;1399;47.072;15.452;2023-06-04T08:04:41;21.70;52.70
2783;DHT22;1399;47.072;15.452;2023-06-04T08:07:07;21.70;52.60
2783;DHT22;1399;47.072;15.452;2023-06-04T08:09:32;21.70;52.50
2783;DHT22;1399;47.072;15.452;2023-06-04T08:11:59;21.80;52.50
2783;DHT22;1399;47.072;15.452;2023-06-04T08:14:24;21.80;52.60
2783;DHT22;1399;47.072;15.452;2023-06-04T08:16:55;21.80;52.50
2783;DHT22;1399;47.072;15.452;2023-06-04T08:19:21;21.80;52.40
2783;DHT22;1399;47.072;15.452;2023-06-04T08:21:47;21.90;52.60
2783;DHT22;1399;47.072;15.452;2023-06-04T08:24:13;21.90;52.70
2783;DHT22;1399;47.072;15.452;2023-06-04T08:26:39;21.90;52.70
2783;DHT22;1399;47.072;15.452;2023-06-04T08:29:08;22.00;52.60
2783;DHT22;1399;47.072;15.452;2023-06-04T08:31:34;22.00;52.60
2783;DHT22;1399;47.072;15.452;2023-06-04T08:34:00;22.00;52.50
2783;DHT22;1399;47.072;15.452;2023-06-04T08:36:27;22.10;52.60
2783;DHT22;1399;47.072;15.452;2023-06-04T08:38:53;22.10;52.50
2783;DHT22;1399;47.072;15.452;2023-06-04T08:41:31;22.10;53.10
2783;DHT22;1399;47.072;15.452;2023-06-04T08:44:00;22.20;52.40
2783;DHT22;1399;47.072;15.452;2023-06-04T08:46:32;22.20;52.40
2783;DHT22;1399;47.072;15.452;2023-06-04T08:49:00;22.20;52.50
2783;DHT22;1399;47.072;15.452;2023-06-04T08:51:30;22.20;52.40
2783;DHT22;1399;47.072;15.452;2023-06-04T08:53:58;22.30;52.10
2783;DHT22;1399;47.072;15.452;2023-06-04T08:56:24;22.30;52.20
2783;DHT22;1399;47.072;15.452;2023-06-04T08:58:51;22.40;52.10
2783;DHT22;1399;47.072;15.452;2023-06-04T09:01:18;22.50;52.10
2783;DHT22;1399;47.072;15.452;2023-06-04T09:03:44;22.60;51.90
2783;DHT22;1399;47.072;15.452;2023-06-04T09:06:11;22.60;52.30
2783;DHT22;1399;47.072;15.452;2023-06-04T09:08:39;22.70;51.40
2783;DHT22;1399;47.072;15.452;2023-06-04T09:11:11;22.80;51.80
2783;DHT22;1399;47.072;15.452;2023-06-04T09:13:40;22.90;51.50
2783;DHT22;1399;47.072;15.452;2023-06-04T09:16:08;22.90;51.30
2783;DHT22;1399;47.072;15.452;2023-06-04T09:18:34;23.00;50.90
2783;DHT22;1399;47.072;15.452;2023-06-04T09:21:01;23.00;50.90
2783;DHT22;1399;47.072;15.452;2023-06-04T09:23:27;23.10;50.90
2783;DHT22;1399;47.072;15.452;2023-06-04T09:25:53;23.10;50.70
2783;DHT22;1399;47.072;15.452;2023-06-04T09:28:20;23.10;50.60
2783;DHT22;1399;47.072;15.452;2023-06-04T09:30:55;23.20;51.20
2783;DHT22;1399;47.072;15.452;2023-06-04T09:33:20;23.20;51.40
2783;DHT22;1399;47.072;15.452;2023-06-04T09:35:54;23.20;50.90
2783;DHT22;1399;47.072;15.452;2023-06-04T09:38:21;23.10;50.80
2783;DHT22;1399;47.072;15.452;2023-06-04T09:40:48;23.10;50.80
2783;DHT22;1399;47.072;15.452;2023-06-04T09:43:22;23.20;50.80
2783;DHT22;1399;47.072;15.452;2023-06-04T09:45:49;23.20;50.70
2783;DHT22;1399;47.072;15.452;2023-06-04T09:48:21;23.20;50.60
2783;DHT22;1399;47.072;15.452;2023-06-04T09:50:47;23.30;50.70
2783;DHT22;1399;47.072;15.452;2023-06-04T09:53:22;23.30;50.80
2783;DHT22;1399;47.072;15.452;2023-06-04T09:55:58;23.30;50.80
2783;DHT22;1399;47.072;15.452;2023-06-04T09:58:28;23.20;50.70
2783;DHT22;1399;47.072;15.452;2023-06-04T10:00:57;23.20;50.90
2783;DHT22;1399;47.072;15.452;2023-06-04T10:03:24;23.20;50.90
2783;DHT22;1399;47.072;15.452;2023-06-04T10:05:53;23.20;50.90
2783;DHT22;1399;47.072;15.452;2023-06-04T10:08:22;23.30;51.00
2783;DHT22;1399;47.072;15.452;2023-06-04T10:10:50;23.30;51.10
2783;DHT22;1399;47.072;15.452;2023-06-04T10:13:20;23.30;51.00
2783;DHT22;1399;47.072;15.452;2023-06-04T10:15:46;23.30;50.90
2783;DHT22;1399;47.072;15.452;2023-06-04T10:18:14;23.20;50.80
2783;DHT22;1399;47.072;15.452;2023-06-04T10:20:41;23.30;50.90
2783;DHT22;1399;47.072;15.452;2023-06-04T10:23:07;23.20;51.00
2783;DHT22;1399;47.072;15.452;2023-06-04T10:25:36;23.30;51.20
2783;DHT22;1399;47.072;15.452;2023-06-04T10:28:03;23.30;51.00
2783;DHT22;1399;47.072;15.452;2023-06-04T10:30:30;23.30;50.90
2783;DHT22;1399;47.072;15.452;2023-06-04T10:32:59;23.30;51.00
2783;DHT22;1399;47.072;15.452;2023-06-04T10:35:35;23.40;51.00
2783;DHT22;1399;47.072;15.452;2023-06-04T10:38:12;23.40;50.90
2783;DHT22;1399;47.072;15.452;2023-06-04T10:40:39;23.50;50.90
2783;DHT22;1399;47.072;15.452;2023-06-04T10:43:07;23.50;50.80
2783;DHT22;1399;47.072;15.452;2023-06-04T10:45:33;23.50;51.20
2783;DHT22;1399;47.072;15.452;2023-06-04T10:48:04;23.50;51.00
2783;DHT22;1399;47.072;15.452;2023-06-04T10:50:31;23.50;50.80
2783;DHT22;1399;47.072;15.452;2023-06-04T10:52:57;23.50;50.80
2783;DHT22;1399;47.072;15.452;2023-06-04T10:55:24;23.40;50.80
2783;DHT22;1399;47.072;15.452;2023-06-04T10:57:58;23.50;51.00
2783;DHT22;1399;47.072;15.452;2023-06-04T11:00:44;23.40;51.10
2783;DHT22;1399;47.072;15.452;2023-06-04T11:03:15;23.40;51.40
2783;DHT22;1399;47.072;15.452;2023-06-04T11:05:43;23.40;51.30
2783;DHT22;1399;47.072;15.452;2023-06-04T11:08:11;23.30;51.40
2783;DHT22;1399;47.072;15.452;2023-06-04T11:10:42;23.30;51.30
2783;DHT22;1399;47.072;15.452;2023-06-04T11:13:08;23.30;51.30
2783;DHT22;1399;47.072;15.452;2023-06-04T11:15:46;23.30;51.40
2783;DHT22;1399;47.072;15.452;2023-06-04T11:18:18;23.30;51.50
2783;DHT22;1399;47.072;15.452;2023-06-04T11:20:49;23.20;51.40
2783;DHT22;1399;47.072;15.452;2023-06-04T11:23:16;23.30;51.50
2783;DHT22;1399;47.072;15.452;2023-06-04T11:25:43;23.30;51.50
2783;DHT22;1399;47.072;15.452;2023-06-04T11:28:17;23.30;51.60
2783;DHT22;1399;47.072;15.452;2023-06-04T11:30:43;23.30;51.20
2783;DHT22;1399;47.072;15.452;2023-06-04T11:33:09;23.30;51.60
2783;DHT22;1399;47.072;15.452;2023-06-04T11:35:42;23.40;51.70
2783;DHT22;1399;47.072;15.452;2023-06-04T11:38:10;23.40;51.50
2783;DHT22;1399;47.072;15.452;2023-06-04T11:40:36;23.40;51.60
2783;DHT22;1399;47.072;15.452;2023-06-04T11:43:02;23.50;51.60
2783;DHT22;1399;47.072;15.452;2023-06-04T11:45:28;23.50;51.40
2783;DHT22;1399;47.072;15.452;2023-06-04T11:47:56;23.50;51.40
2783;DHT22;1399;47.072;15.452;2023-06-04T11:50:26;23.60;51.30
2783;DHT22;1399;47.072;15.452;2023-06-04T11:52:52;23.60;51.30
2783;DHT22;1399;47.072;15.452;2023-06-04T11:55:19;23.60;51.30
2783;DHT22;1399;47.072;15.452;2023-06-04T11:57:49;23.60;51.30
2783;DHT22;1399;47.072;15.452;2023-06-04T12:00:16;23.60;51.40
2783;DHT22;1399;47.072;15.452;2023-06-04T12:02:50;23.60;51.40
2783;DHT22;1399;47.072;15.452;2023-06-04T12:05:18;23.60;51.30
2783;DHT22;1399;47.072;15.452;2023-06-04T12:07:45;23.60;51.30
2783;DHT22;1399;47.072;15.452;2023-06-04T12:10:11;23.70;51.20
2783;DHT22;1399;47.072;15.452;2023-06-04T12:12:37;23.70;51.20
2783;DHT22;1399;47.072;15.452;2023-06-04T12:15:04;23.60;51.10
2783;DHT22;1399;47.072;15.452;2023-06-04T12:17:33;23.60;51.20
2783;DHT22;1399;47.072;15.452;2023-06-04T12:19:58;23.60;51.20
2783;DHT22;1399;47.072;15.452;2023-06-04T12:22:25;23.50;51.30
2783;DHT22;1399;47.072;15.452;2023-06-04T12:24:54;23.50;51.40
2783;DHT22;1399;47.072;15.452;2023-06-04T12:27:22;23.50;51.50
2783;DHT22;1399;47.072;15.452;2023-06-04T12:30:04;23.50;51.60
2783;DHT22;1399;47.072;15.452;2023-06-04T12:32:36;23.50;51.70
2783;DHT22;1399;47.072;15.452;2023-06-04T12:35:02;23.40;51.80
2783;DHT22;1399;47.072;15.452;2023-06-04T12:37:28;23.30;51.90
2783;DHT22;1399;47.072;15.452;2023-06-04T12:39:54;23.40;52.20
2783;DHT22;1399;47.072;15.452;2023-06-04T12:42:21;23.30;52.30
2783;DHT22;1399;47.072;15.452;2023-06-04T12:44:47;23.20;52.30
2783;DHT22;1399;47.072;15.452;2023-06-04T12:47:13;23.20;52.50
2783;DHT22;1399;47.072;15.452;2023-06-04T12:49:38;23.20;52.60
2783;DHT22;1399;47.072;15.452;2023-06-04T12:52:04;23.10;52.60
2783;DHT22;1399;47.072;15.452;2023-06-04T12:54:31;23.10;52.70
2783;DHT22;1399;47.072;15.452;2023-06-04T12:56:58;23.00;52.70
2783;DHT22;1399;47.072;15.452;2023-06-04T12:59:25;23.00;52.80
2783;DHT22;1399;47.072;15.452;2023-06-04T13:01:52;23.00;52.90
2783;DHT22;1399;47.072;15.452;2023-06-04T13:04:18;22.90;53.10
2783;DHT22;1399;47.072;15.452;2023-06-04T13:06:44;22.80;53.40
2783;DHT22;1399;47.072;15.452;2023-06-04T13:09:11;22.80;53.70
2783;DHT22;1399;47.072;15.452;2023-06-04T13:11:43;22.70;53.90
2783;DHT22;1399;47.072;15.452;2023-06-04T13:14:10;22.70;54.20
2783;DHT22;1399;47.072;15.452;2023-06-04T13:16:37;22.60;54.20
2783;DHT22;1399;47.072;15.452;2023-06-04T13:19:04;22.60;54.40
2783;DHT22;1399;47.072;15.452;2023-06-04T13:21:30;22.60;54.50
2783;DHT22;1399;47.072;15.452;2023-06-04T13:23:55;22.60;54.70
2783;DHT22;1399;47.072;15.452;2023-06-04T13:26:22;22.50;54.70
2783;DHT22;1399;47.072;15.452;2023-06-04T13:28:47;22.50;54.90
2783;DHT22;1399;47.072;15.452;2023-06-04T13:31:13;22.50;54.90
2783;DHT22;1399;47.072;15.452;2023-06-04T13:33:39;22.50;55.10
2783;DHT22;1399;47.072;15.452;2023-06-04T13:36:06;22.50;55.10
2783;DHT22;1399;47.072;15.452;2023-06-04T13:38:32;22.60;55.20
2783;DHT22;1399;47.072;15.452;2023-06-04T13:40:58;22.50;55.10
2783;DHT22;1399;47.072;15.452;2023-06-04T13:43:24;22.40;55.00
2783;DHT22;1399;47.072;15.452;2023-06-04T13:45:50;22.40;55.20
2783;DHT22;1399;47.072;15.452;2023-06-04T13:48:16;22.30;55.30
2783;DHT22;1399;47.072;15.452;2023-06-04T13:50:42;22.30;55.70
2783;DHT22;1399;47.072;15.452;2023-06-04T13:53:08;22.20;56.10
2783;DHT22;1399;47.072;15.452;2023-06-04T13:55:34;22.20;56.60
2783;DHT22;1399;47.072;15.452;2023-06-04T13:58:00;22.10;57.00
2783;DHT22;1399;47.072;15.452;2023-06-04T14:00:26;22.10;57.40
2783;DHT22;1399;47.072;15.452;2023-06-04T14:02:52;22.10;57.80
2783;DHT22;1399;47.072;15.452;2023-06-04T14:05:21;22.00;58.00
2783;DHT22;1399;47.072;15.452;2023-06-04T14:07:46;22.00;58.30
2783;DHT22;1399;47.072;15.452;2023-06-04T14:10:12;22.00;58.50
2783;DHT22;1399;47.072;15.452;2023-06-04T14:12:39;22.00;58.70
2783;DHT22;1399;47.072;15.452;2023-06-04T14:15:07;21.90;58.80
2783;DHT22;1399;47.072;15.452;2023-06-04T14:17:34;21.90;58.90
2783;DHT22;1399;47.072;15.452;2023-06-04T14:20:01;21.90;58.90
2783;DHT22;1399;47.072;15.452;2023-06-04T14:22:36;21.90;58.90
2783;DHT22;1399;47.072;15.452;2023-06-04T14:25:06;21.90;58.80
2783;DHT22;1399;47.072;15.452;2023-06-04T14:27:33;21.80;58.60
2783;DHT22;1399;47.072;15.452;2023-06-04T14:30:04;21.80;58.70
2783;DHT22;1399;47.072;15.452;2023-06-04T14:32:30;21.80;58.70
2783;DHT22;1399;47.072;15.452;2023-06-04T14:34:57;21.70;58.70
2783;DHT22;1399;47.072;15.452;2023-06-04T14:37:23;21.60;58.50
2783;DHT22;1399;47.072;15.452;2023-06-04T14:39:49;21.60;58.50
2783;DHT22;1399;47.072;15.452;2023-06-04T14:42:15;21.50;58.40
2783;DHT22;1399;47.072;15.452;2023-06-04T14:44:41;21.40;58.40
2783;DHT22;1399;47.072;15.452;2023-06-04T14:47:07;21.40;58.50
2783;DHT22;1399;47.072;15.452;2023-06-04T14:49:33;21.30;58.60
2783;DHT22;1399;47.072;15.452;2023-06-04T14:51:59;21.20;58.70
2783;DHT22;1399;47.072;15.452;2023-06-04T14:54:25;21.20;59.10
2783;DHT22;1399;47.072;15.452;2023-06-04T14:56:51;21.10;59.30
2783;DHT22;1399;47.072;15.452;2023-06-04T14:59:17;21.10;59.60
2783;DHT22;1399;47.072;15.452;2023-06-04T15:01:43;21.00;59.80
2783;DHT22;1399;47.072;15.452;2023-06-04T15:04:09;21.00;60.00
2783;DHT22;1399;47.072;15.452;2023-06-04T15:06:35;20.90;60.30
2783;DHT22;1399;47.072;15.452;2023-06-04T15:09:01;20.80;60.60
2783;DHT22;1399;47.072;15.452;2023-06-04T15:11:27;20.80;61.00
2783;DHT22;1399;47.072;15.452;2023-06-04T15:13:53;20.80;61.40
2783;DHT22;1399;47.072;15.452;2023-06-04T15:16:19;20.80;61.70
2783;DHT22;1399;47.072;15.452;2023-06-04T15:18:46;20.80;61.90
2783;DHT22;1399;47.072;15.452;2023-06-04T15:21:11;20.80;62.00
2783;DHT22;1399;47.072;15.452;2023-06-04T15:23:37;20.80;62.20
2783;DHT22;1399;47.072;15.452;2023-06-04T15:26:03;20.80;62.30
2783;DHT22;1399;47.072;15.452;2023-06-04T15:28:29;20.80;62.40
2783;DHT22;1399;47.072;15.452;2023-06-04T15:30:54;20.80;62.50
2783;DHT22;1399;47.072;15.452;2023-06-04T15:33:20;20.80;62.60
2783;DHT22;1399;47.072;15.452;2023-06-04T15:35:46;20.90;62.60
2783;DHT22;1399;47.072;15.452;2023-06-04T15:38:12;20.90;62.50
2783;DHT22;1399;47.072;15.452;2023-06-04T15:40:37;20.90;62.60
2783;DHT22;1399;47.072;15.452;2023-06-04T15:43:03;21.00;62.60
2783;DHT22;1399;47.072;15.452;2023-06-04T15:45:29;21.10;62.60
2783;DHT22;1399;47.072;15.452;2023-06-04T15:47:55;21.10;62.40
2783;DHT22;1399;47.072;15.452;2023-06-04T15:50:21;21.20;62.40
2783;DHT22;1399;47.072;15.452;2023-06-04T15:52:47;21.30;62.30